createdAt,value
2018-04-01T00:01:57.616Z,2.02
2018-04-01T00:04:24.623Z,2.10
2018-04-01T00:06:51.628Z,1.91
2018-04-01T00:09:18.582Z,2.00
2018-04-01T00:11:45.600Z,2.01
2018-04-01T00:14:12.568Z,1.84
2018-04-01T00:16:39.520Z,1.88
2018-04-01T00:19:06.463Z,1.75
2018-04-01T00:21:34.114Z,1.84
2018-04-01T00:24:01.106Z,1.86
2018-04-01T00:26:28.126Z,1.88
2018-04-01T00:28:55.077Z,1.86
2018-04-01T00:31:22.082Z,1.79
2018-04-01T00:33:49.040Z,1.89
2018-04-01T00:36:16.002Z,1.89
2018-04-01T00:38:43.430Z,1.96
2018-04-01T00:41:10.390Z,1.99
2018-04-01T00:43:37.347Z,1.91
2018-04-01T00:46:04.322Z,1.94
2018-04-01T00:48:31.340Z,1.95
2018-04-01T00:50:58.373Z,1.89
2018-04-01T00:53:25.338Z,1.98
2018-04-01T00:55:52.332Z,2.03
2018-04-01T00:58:19.312Z,1.92
2018-04-01T01:00:46.272Z,1.90
2018-04-01T01:03:13.272Z,1.92
2018-04-01T01:05:40.344Z,1.99
2018-04-01T01:08:07.391Z,1.99
2018-04-01T01:10:34.359Z,1.94
2018-04-01T01:13:01.364Z,1.93
2018-04-01T01:15:28.335Z,1.92
2018-04-01T01:17:55.316Z,1.89
2018-04-01T01:20:22.364Z,1.92
2018-04-01T01:22:49.308Z,1.92
2018-04-01T01:25:16.250Z,1.93
2018-04-01T01:27:43.190Z,1.92
2018-04-01T01:30:10.146Z,1.85
2018-04-01T01:32:37.161Z,1.79
2018-04-01T01:35:04.124Z,1.86
2018-04-01T01:37:31.124Z,1.80
2018-04-01T01:39:58.134Z,1.81
2018-04-01T01:42:25.071Z,1.85
2018-04-01T01:44:53.161Z,1.92
2018-04-01T01:47:20.185Z,1.86
2018-04-01T01:49:47.244Z,1.88
2018-04-01T01:52:14.235Z,1.98
2018-04-01T01:54:41.205Z,1.88
2018-04-01T01:57:08.196Z,1.96
2018-04-01T01:59:35.157Z,1.88
2018-04-01T02:02:02.163Z,1.93
2018-04-01T02:04:29.194Z,1.90
2018-04-01T02:06:56.158Z,1.94
2018-04-01T02:09:23.104Z,1.99
2018-04-01T02:11:50.134Z,1.87
2018-04-01T02:14:17.124Z,1.82
2018-04-01T02:16:44.083Z,1.90
2018-04-01T02:19:11.111Z,1.94
2018-04-01T02:21:38.094Z,1.83
2018-04-01T02:24:05.068Z,1.83
2018-04-01T02:26:32.345Z,1.83
2018-04-01T02:28:59.366Z,1.90
2018-04-01T02:31:26.436Z,1.95
2018-04-01T02:33:53.435Z,1.88
2018-04-01T02:36:20.486Z,1.89
2018-04-01T02:38:47.508Z,1.90
2018-04-01T02:41:14.572Z,1.74
2018-04-01T02:43:41.590Z,1.79
2018-04-01T02:46:08.600Z,1.76
2018-04-01T02:48:35.591Z,1.70
2018-04-01T02:51:02.566Z,1.69
2018-04-01T02:53:29.558Z,1.73
2018-04-01T02:55:56.553Z,1.73
2018-04-01T02:58:25.593Z,1.80
2018-04-01T03:00:52.648Z,1.78
2018-04-01T03:03:19.712Z,1.83
2018-04-01T03:05:46.669Z,1.84
2018-04-01T03:08:13.671Z,1.81
2018-04-01T03:10:40.662Z,1.92
2018-04-01T03:13:07.635Z,1.70
2018-04-01T03:15:34.622Z,1.73
2018-04-01T03:18:01.710Z,1.73
2018-04-01T03:20:28.777Z,1.74
2018-04-01T03:22:55.756Z,1.59
2018-04-01T03:25:22.724Z,1.60
2018-04-01T03:27:49.775Z,1.69
2018-04-01T03:30:16.826Z,1.77
2018-04-01T03:32:43.809Z,1.70
2018-04-01T03:35:10.835Z,1.66
2018-04-01T03:37:37.853Z,1.70
2018-04-01T03:40:04.853Z,1.69
2018-04-01T03:42:31.962Z,1.70
2018-04-01T03:44:58.918Z,1.65
2018-04-01T03:47:25.927Z,1.69
2018-04-01T03:49:52.987Z,1.75
2018-04-01T03:52:20.678Z,1.71
2018-04-01T03:54:47.634Z,1.61
2018-04-01T03:57:14.595Z,1.60
2018-04-01T03:59:41.613Z,1.63
2018-04-01T04:02:08.591Z,1.65
2018-04-01T04:04:35.621Z,1.72
2018-04-01T04:07:02.648Z,1.65
2018-04-01T04:09:29.673Z,1.54
2018-04-01T04:11:56.642Z,1.61
2018-04-01T04:14:23.666Z,1.64
2018-04-01T04:16:50.760Z,1.66
2018-04-01T04:19:17.790Z,1.69
2018-04-01T04:21:44.826Z,1.80
2018-04-01T04:24:11.789Z,1.80
2018-04-01T04:26:38.770Z,1.68
2018-04-01T04:29:05.770Z,1.75
2018-04-01T04:31:32.739Z,1.79
2018-04-01T04:33:59.768Z,1.72
2018-04-01T04:36:26.912Z,1.70
2018-04-01T04:38:53.978Z,1.71
2018-04-01T04:41:21.018Z,1.80
2018-04-01T04:43:48.098Z,1.78
2018-04-01T04:46:15.122Z,1.70
2018-04-01T04:48:42.244Z,1.80
2018-04-01T04:51:09.316Z,1.78
2018-04-01T04:53:36.421Z,1.77
2018-04-01T04:56:03.406Z,1.82
2018-04-01T04:58:30.600Z,1.74
2018-04-01T05:00:57.621Z,1.80
2018-04-01T05:03:24.586Z,1.75
2018-04-01T05:05:51.621Z,1.81
2018-04-01T05:08:18.639Z,1.77
2018-04-01T05:10:45.879Z,1.68
2018-04-01T05:13:12.858Z,1.83
2018-04-01T05:15:39.821Z,1.89
2018-04-01T05:18:06.832Z,1.75
2018-04-01T05:20:33.903Z,1.82
2018-04-01T05:23:01.534Z,1.85
2018-04-01T05:25:28.504Z,1.88
2018-04-01T05:27:55.543Z,1.85
2018-04-01T05:30:22.574Z,1.78
2018-04-01T05:32:49.590Z,1.83
2018-04-01T05:35:16.569Z,1.78
2018-04-01T05:37:43.892Z,1.78
2018-04-01T05:40:11.209Z,1.80
2018-04-01T05:42:40.014Z,1.81
2018-04-01T05:45:07.007Z,1.83
2018-04-01T05:47:34.325Z,1.93
2018-04-01T05:50:01.426Z,1.88
2018-04-01T05:52:28.433Z,1.91
2018-04-01T05:54:55.530Z,1.89
2018-04-01T05:57:22.529Z,1.94
2018-04-01T05:59:51.860Z,1.92
2018-04-01T06:02:18.911Z,1.90
2018-04-01T06:04:45.975Z,1.90
2018-04-01T06:07:14.087Z,1.93
2018-04-01T06:09:41.107Z,1.99
2018-04-01T06:12:08.146Z,1.94
2018-04-01T06:14:35.169Z,1.97
2018-04-01T06:17:02.138Z,1.90
2018-04-01T06:19:29.279Z,1.96
2018-04-01T06:21:56.318Z,2.00
2018-04-01T06:24:23.925Z,1.98
2018-04-01T06:26:50.952Z,2.11
2018-04-01T06:29:18.846Z,2.08
2018-04-01T06:31:46.735Z,2.19
2018-04-01T06:34:13.683Z,2.09
2018-04-01T06:36:41.638Z,2.15
2018-04-01T06:39:08.641Z,2.24
2018-04-01T06:41:36.610Z,2.29
2018-04-01T06:44:05.123Z,2.34
2018-04-01T06:46:32.119Z,2.27
2018-04-01T06:48:59.102Z,2.32
2018-04-01T06:51:26.078Z,2.30
2018-04-01T06:53:53.080Z,2.31
2018-04-01T06:56:20.151Z,2.36
2018-04-01T06:58:50.409Z,2.37
2018-04-01T07:01:17.387Z,2.38
2018-04-01T07:03:44.485Z,2.46
2018-04-01T07:06:11.515Z,2.48
2018-04-01T07:08:41.457Z,2.49
2018-04-01T07:11:08.504Z,2.55
2018-04-01T07:13:35.679Z,2.54
2018-04-01T07:16:02.658Z,2.53
2018-04-01T07:18:29.764Z,2.49
2018-04-01T07:20:56.879Z,2.55
2018-04-01T07:23:25.139Z,2.48
2018-04-01T07:25:53.366Z,2.55
2018-04-01T07:28:20.388Z,2.62
2018-04-01T07:30:47.437Z,2.59
2018-04-01T07:33:14.509Z,2.64
2018-04-01T07:35:41.444Z,2.65
2018-04-01T07:38:08.558Z,2.75
2018-04-01T07:40:41.902Z,2.62
2018-04-01T07:43:08.912Z,2.72
2018-04-01T07:45:35.914Z,2.64
2018-04-01T07:48:02.896Z,2.60
2018-04-01T07:50:30.754Z,2.66
2018-04-01T07:52:59.380Z,2.71
2018-04-01T07:55:26.830Z,2.76
2018-04-01T07:57:53.865Z,2.82
2018-04-01T08:00:20.842Z,2.76
2018-04-01T08:02:50.427Z,2.89
2018-04-01T08:05:17.525Z,2.88
2018-04-01T08:07:46.067Z,2.78
2018-04-01T08:10:20.861Z,2.81
2018-04-01T08:12:51.929Z,2.83
2018-04-01T08:15:18.976Z,2.70
2018-04-01T08:17:46.650Z,2.74
2018-04-01T08:20:13.680Z,2.81
2018-04-01T08:22:40.648Z,2.91
2018-04-01T08:25:07.698Z,2.88
2018-04-01T08:27:34.730Z,2.93
2018-04-01T08:30:01.757Z,2.78
2018-04-01T08:32:28.720Z,2.99
2018-04-01T08:34:55.760Z,3.02
2018-04-01T08:37:23.002Z,3.07
2018-04-01T08:39:50.093Z,3.05
2018-04-01T08:42:17.145Z,3.17
2018-04-01T08:44:44.175Z,3.16
2018-04-01T08:47:11.368Z,3.24
2018-04-01T08:49:38.342Z,3.15
2018-04-01T08:52:05.355Z,3.07
2018-04-01T08:54:32.417Z,3.14
2018-04-01T08:56:59.440Z,3.07
2018-04-01T08:59:26.529Z,3.23
2018-04-01T09:01:53.479Z,3.01
2018-04-01T09:04:20.422Z,3.00
2018-04-01T09:06:47.425Z,3.18
2018-04-01T09:09:14.394Z,3.22
2018-04-01T09:11:41.385Z,3.24
2018-04-01T09:14:08.498Z,3.24
2018-04-01T09:16:35.476Z,3.34
2018-04-01T09:19:02.623Z,3.31
2018-04-01T09:21:29.700Z,3.23
2018-04-01T09:23:56.861Z,3.30
2018-04-01T09:26:23.934Z,3.29
2018-04-01T09:28:51.007Z,3.46
2018-04-01T09:31:18.024Z,3.38
2018-04-01T09:33:45.042Z,3.53
2018-04-01T09:36:12.198Z,3.74
2018-04-01T09:38:39.214Z,3.61
2018-04-01T09:41:06.289Z,3.83
2018-04-01T09:43:33.248Z,3.94
2018-04-01T09:46:00.340Z,4.01
2018-04-01T09:48:27.383Z,3.86
2018-04-01T09:50:54.470Z,3.89
2018-04-01T09:53:21.478Z,3.94
2018-04-01T09:55:48.516Z,4.17
2018-04-01T09:58:15.544Z,4.19
2018-04-01T10:01:00.866Z,4.20
2018-04-01T10:03:28.404Z,3.85
2018-04-01T10:05:55.914Z,4.01
2018-04-01T10:08:23.456Z,4.09
2018-04-01T10:10:51.030Z,4.13
2018-04-01T10:13:18.656Z,4.15
2018-04-01T10:15:46.175Z,3.94
2018-04-01T10:18:13.698Z,3.99
2018-04-01T10:20:41.226Z,4.08
2018-04-01T10:23:08.754Z,4.19
2018-04-01T10:25:36.274Z,4.13
2018-04-01T10:28:03.815Z,4.19
2018-04-01T10:30:31.426Z,4.24
2018-04-01T10:32:59.102Z,4.22
2018-04-01T10:35:26.736Z,4.20
2018-04-01T10:37:54.296Z,4.17
2018-04-01T10:40:21.856Z,4.13
2018-04-01T10:42:49.367Z,4.04
2018-04-01T10:45:16.885Z,4.27
2018-04-01T10:47:44.501Z,4.33
2018-04-01T10:50:12.065Z,4.71
2018-04-01T10:52:39.973Z,4.87
2018-04-01T10:55:07.060Z,4.78
2018-04-01T10:57:34.201Z,4.49
2018-04-01T11:00:01.196Z,4.81
2018-04-01T11:02:28.173Z,4.91
2018-04-01T11:04:55.212Z,4.99
2018-04-01T11:07:22.278Z,5.23
2018-04-01T11:09:50.218Z,5.07
2018-04-01T11:12:17.229Z,5.03
2018-04-01T11:14:44.205Z,5.10
2018-04-01T11:17:11.149Z,4.74
2018-04-01T11:19:38.201Z,4.82
2018-04-01T11:22:05.258Z,4.56
2018-04-01T11:24:32.321Z,4.55
2018-04-01T11:26:59.358Z,4.64
2018-04-01T11:29:26.386Z,4.77
2018-04-01T11:31:53.361Z,4.84
2018-04-01T11:34:20.452Z,4.94
2018-04-01T11:36:47.434Z,4.82
2018-04-01T11:39:14.558Z,4.85
2018-04-01T11:41:41.522Z,5.07
2018-04-01T11:44:08.517Z,4.62
2018-04-01T11:46:35.526Z,4.66
2018-04-01T11:49:02.557Z,4.81
2018-04-01T11:51:29.516Z,4.69
2018-04-01T11:53:56.537Z,4.67
2018-04-01T11:56:23.536Z,4.81
2018-04-01T11:58:50.538Z,4.69
2018-04-01T12:01:17.519Z,4.64
2018-04-01T12:03:44.519Z,4.50
2018-04-01T12:06:11.499Z,4.64
2018-04-01T12:08:38.533Z,4.45
2018-04-01T12:11:05.492Z,4.51
2018-04-01T12:13:32.524Z,4.58
2018-04-01T12:15:59.517Z,4.46
2018-04-01T12:18:26.543Z,4.57
2018-04-01T12:20:53.609Z,4.57
2018-04-01T12:23:20.658Z,4.70
2018-04-01T12:25:47.654Z,4.60
2018-04-01T12:28:14.665Z,4.65
2018-04-01T12:30:41.681Z,4.92
2018-04-01T12:33:08.712Z,4.99
2018-04-01T12:35:35.736Z,4.99
2018-04-01T12:38:02.711Z,4.94
2018-04-01T12:40:29.698Z,5.02
2018-04-01T12:42:56.707Z,5.25
2018-04-01T12:45:23.727Z,5.37
2018-04-01T12:47:50.698Z,5.23
2018-04-01T12:50:17.697Z,5.26
2018-04-01T12:52:44.668Z,5.15
2018-04-01T12:55:11.613Z,5.19
2018-04-01T12:57:38.588Z,5.28
2018-04-01T13:00:05.597Z,5.54
2018-04-01T13:02:32.578Z,5.32
2018-04-01T13:04:59.592Z,5.09
2018-04-01T13:07:26.636Z,5.14
2018-04-01T13:09:53.606Z,5.38
2018-04-01T13:12:20.555Z,5.36
2018-04-01T13:14:47.508Z,5.33
2018-04-01T13:17:14.467Z,5.25
2018-04-01T13:19:41.481Z,5.29
2018-04-01T13:22:08.494Z,5.54
2018-04-01T13:24:35.492Z,5.28
2018-04-01T13:27:03.342Z,5.47
2018-04-01T13:29:30.373Z,5.49
2018-04-01T13:31:57.374Z,5.58
2018-04-01T13:34:24.375Z,5.81
2018-04-01T13:36:51.350Z,5.71
2018-04-01T13:39:18.324Z,5.80
2018-04-01T13:41:52.121Z,5.67
2018-04-01T13:44:19.841Z,5.85
2018-04-01T13:46:46.814Z,5.64
2018-04-01T13:49:13.816Z,5.71
2018-04-01T13:51:41.106Z,5.89
2018-04-01T13:54:08.186Z,5.87
2018-04-01T13:56:35.405Z,5.82
2018-04-01T13:59:02.399Z,5.91
2018-04-01T14:01:29.397Z,5.76
2018-04-01T14:03:56.352Z,5.76
2018-04-01T14:06:23.326Z,5.94
2018-04-01T14:08:50.311Z,5.93
2018-04-01T14:11:17.305Z,6.02
2018-04-01T14:13:44.328Z,5.94
2018-04-01T14:16:11.371Z,5.90
2018-04-01T14:18:38.359Z,6.03
2018-04-01T14:21:05.327Z,5.89
2018-04-01T14:23:32.314Z,5.77
2018-04-01T14:25:59.311Z,6.00
2018-04-01T14:28:26.311Z,6.13
2018-04-01T14:30:53.355Z,6.18
2018-04-01T14:33:20.372Z,6.33
2018-04-01T14:35:47.425Z,6.33
2018-04-01T14:38:14.392Z,5.94
2018-04-01T14:40:41.362Z,5.88
2018-04-01T14:43:08.326Z,5.90
2018-04-01T14:45:35.355Z,5.74
2018-04-01T14:48:02.339Z,5.81
2018-04-01T14:50:29.358Z,5.94
2018-04-01T14:52:56.335Z,5.84
2018-04-01T14:55:23.326Z,5.95
2018-04-01T14:57:50.294Z,5.80
2018-04-01T15:00:17.254Z,5.85
2018-04-01T15:02:44.307Z,5.89
2018-04-01T15:05:11.299Z,6.09
2018-04-01T15:07:38.288Z,5.92
2018-04-01T15:10:05.289Z,5.90
2018-04-01T15:12:32.238Z,5.87
2018-04-01T15:14:59.306Z,5.89
2018-04-01T15:17:26.278Z,5.90
2018-04-01T15:19:53.314Z,5.82
2018-04-01T15:22:20.285Z,5.78
2018-04-01T15:24:47.302Z,5.73
2018-04-01T15:27:14.321Z,5.63
2018-04-01T15:29:41.279Z,5.68
2018-04-01T15:32:08.257Z,5.73
2018-04-01T15:34:35.277Z,5.77
2018-04-01T15:37:02.278Z,5.83
2018-04-01T15:39:29.300Z,5.91
2018-04-01T15:41:56.308Z,5.96
2018-04-01T15:44:23.286Z,5.93
2018-04-01T15:46:50.312Z,5.93
2018-04-01T15:49:17.344Z,6.00
2018-04-01T15:51:44.439Z,6.06
2018-04-01T15:54:11.454Z,6.08
2018-04-01T15:56:38.429Z,6.03
2018-04-01T15:59:05.435Z,6.13
2018-04-01T16:01:32.496Z,6.10
2018-04-01T16:03:59.494Z,6.14
2018-04-01T16:06:26.507Z,6.17
2018-04-01T16:08:53.473Z,6.11
2018-04-01T16:11:20.534Z,6.22
2018-04-01T16:13:47.628Z,6.23
2018-04-01T16:16:14.574Z,6.17
2018-04-01T16:18:41.589Z,6.19
2018-04-01T16:21:08.627Z,6.20
2018-04-01T16:23:35.647Z,6.07
2018-04-01T16:26:02.632Z,6.09
2018-04-01T16:28:29.636Z,6.03
2018-04-01T16:30:56.612Z,6.03
2018-04-01T16:33:23.701Z,5.93
2018-04-01T16:35:50.753Z,6.00
2018-04-01T16:38:18.486Z,5.96
2018-04-01T16:40:45.498Z,5.92
2018-04-01T16:43:12.542Z,5.93
2018-04-01T16:45:39.548Z,5.93
2018-04-01T16:48:06.524Z,5.91
2018-04-01T16:50:33.618Z,5.92
2018-04-01T16:53:00.621Z,5.88
2018-04-01T16:55:27.649Z,5.80
2018-04-01T16:57:54.694Z,5.73
2018-04-01T17:00:21.743Z,5.77
2018-04-01T17:02:48.804Z,5.63
2018-04-01T17:05:15.793Z,5.68
2018-04-01T17:07:42.770Z,5.66
2018-04-01T17:10:09.756Z,5.58
2018-04-01T17:12:36.740Z,5.62
2018-04-01T17:15:03.706Z,5.57
2018-04-01T17:17:30.782Z,5.58
2018-04-01T17:19:57.836Z,5.56
2018-04-01T17:22:24.905Z,5.46
2018-04-01T17:24:51.873Z,5.46
2018-04-01T17:27:18.861Z,5.40
2018-04-01T17:29:45.833Z,5.45
2018-04-01T17:32:12.896Z,5.39
2018-04-01T17:34:39.889Z,5.38
2018-04-01T17:37:06.959Z,5.35
2018-04-01T17:39:33.936Z,5.39
2018-04-01T17:42:00.944Z,5.32
2018-04-01T17:44:27.930Z,5.29
2018-04-01T17:46:54.930Z,5.26
2018-04-01T17:49:21.936Z,5.28
2018-04-01T17:51:48.952Z,5.21
2018-04-01T17:54:16.005Z,5.22
2018-04-01T17:56:43.058Z,5.18
2018-04-01T17:59:10.043Z,5.16
2018-04-01T18:01:37.025Z,5.12
2018-04-01T18:04:04.006Z,5.11
2018-04-01T18:06:31.038Z,5.02
2018-04-01T18:08:58.044Z,5.01
2018-04-01T18:11:25.057Z,4.95
2018-04-01T18:13:52.107Z,4.89
2018-04-01T18:16:19.138Z,4.81
2018-04-01T18:18:47.340Z,4.77
2018-04-01T18:21:14.554Z,4.70
2018-04-01T18:23:41.543Z,4.68
2018-04-01T18:26:08.528Z,4.60
2018-04-01T18:28:35.572Z,4.58
2018-04-01T18:31:03.620Z,4.52
2018-04-01T18:33:31.376Z,4.48
2018-04-01T18:35:58.359Z,4.45
2018-04-01T18:38:25.404Z,4.42
2018-04-01T18:40:52.474Z,4.37
2018-04-01T18:43:19.498Z,4.33
2018-04-01T18:45:46.508Z,4.36
2018-04-01T18:48:13.480Z,4.28
2018-04-01T18:50:40.495Z,4.21
2018-04-01T18:53:07.446Z,4.22
2018-04-01T18:55:34.450Z,4.16
2018-04-01T18:58:01.475Z,4.20
2018-04-01T19:00:28.496Z,4.15
2018-04-01T19:02:55.455Z,4.12
2018-04-01T19:05:22.442Z,4.15
2018-04-01T19:07:49.404Z,4.06
2018-04-01T19:10:16.383Z,4.08
2018-04-01T19:12:43.413Z,3.99
2018-04-01T19:15:10.393Z,3.93
2018-04-01T19:17:37.948Z,3.98
2018-04-01T19:20:05.475Z,3.97
2018-04-01T19:22:32.987Z,3.96
2018-04-01T19:25:00.508Z,3.99
2018-04-01T19:27:28.040Z,4.02
2018-04-01T19:29:55.649Z,4.01
2018-04-01T19:32:23.237Z,4.03
2018-04-01T19:34:50.792Z,3.97
2018-04-01T19:37:18.491Z,3.94
2018-04-01T19:39:46.038Z,3.88
2018-04-01T19:42:13.661Z,3.92
2018-04-01T19:44:41.229Z,3.83
2018-04-01T19:47:08.784Z,3.81
2018-04-01T19:49:36.279Z,3.78
2018-04-01T19:52:03.847Z,3.72
2018-04-01T19:54:31.410Z,3.75
2018-04-01T19:56:58.902Z,3.73
2018-04-01T19:59:26.530Z,3.75
2018-04-01T20:01:54.058Z,3.69
2018-04-01T20:04:21.620Z,3.70
2018-04-01T20:06:49.140Z,3.73
2018-04-01T20:09:16.673Z,3.73
2018-04-01T20:11:44.172Z,3.73
2018-04-01T20:14:11.777Z,3.73
2018-04-01T20:16:39.258Z,3.69
2018-04-01T20:19:06.892Z,3.72
2018-04-01T20:21:34.478Z,3.65
2018-04-01T20:24:02.039Z,3.64
2018-04-01T20:26:29.533Z,3.59
2018-04-01T20:28:57.327Z,3.61
2018-04-01T20:31:24.867Z,3.57
2018-04-01T20:33:52.390Z,3.58
2018-04-01T20:36:19.929Z,3.54
2018-04-01T20:38:47.474Z,3.55
2018-04-01T20:41:14.974Z,3.48
2018-04-01T20:43:42.510Z,3.44
2018-04-01T20:46:10.056Z,3.45
2018-04-01T20:48:37.615Z,3.44
2018-04-01T20:51:05.181Z,3.39
2018-04-01T20:53:32.788Z,3.42
2018-04-01T20:56:00.294Z,3.38
2018-04-01T20:58:27.799Z,3.35
2018-04-01T21:00:55.378Z,3.34
2018-04-01T21:03:22.970Z,3.34
2018-04-01T21:05:51.363Z,3.34
2018-04-01T21:08:18.867Z,3.33
2018-04-01T21:10:46.420Z,3.34
2018-04-01T21:13:13.930Z,3.30
2018-04-01T21:15:41.483Z,3.28
2018-04-01T21:18:09.061Z,3.24
2018-04-01T21:20:36.603Z,3.22
2018-04-01T21:23:04.151Z,3.18
2018-04-01T21:25:31.677Z,3.18
2018-04-01T21:27:59.220Z,3.16
2018-04-01T21:30:26.812Z,3.16
2018-04-01T21:32:54.465Z,3.14
2018-04-01T21:35:22.570Z,3.05
2018-04-01T21:37:50.093Z,3.03
2018-04-01T21:40:17.671Z,3.01
2018-04-01T21:42:45.240Z,2.97
2018-04-01T21:45:12.775Z,2.95
2018-04-01T21:47:40.299Z,2.94
2018-04-01T21:50:07.871Z,2.91
2018-04-01T21:52:35.374Z,2.86
2018-04-01T21:55:02.911Z,2.81
2018-04-01T21:57:30.405Z,2.81
2018-04-01T21:59:57.949Z,2.77
2018-04-01T22:02:25.500Z,2.75
2018-04-01T22:04:53.021Z,2.71
2018-04-01T22:07:20.553Z,2.73
2018-04-01T22:09:48.108Z,2.64
2018-04-01T22:12:15.645Z,2.59
2018-04-01T22:14:43.208Z,2.58
2018-04-01T22:17:10.752Z,2.57
2018-04-01T22:19:38.302Z,2.58
2018-04-01T22:22:05.831Z,2.52
2018-04-01T22:24:33.352Z,2.45
2018-04-01T22:27:00.884Z,2.41
2018-04-01T22:29:28.434Z,2.39
2018-04-01T22:31:55.985Z,2.35
2018-04-01T22:34:23.533Z,2.33
2018-04-01T22:36:51.029Z,2.37
2018-04-01T22:39:18.623Z,2.32
2018-04-01T22:41:46.115Z,2.35
2018-04-01T22:44:13.630Z,2.31
2018-04-01T22:46:41.169Z,2.27
2018-04-01T22:49:08.678Z,2.14
2018-04-01T22:51:36.252Z,2.19
2018-04-01T22:54:03.866Z,2.18
2018-04-01T22:56:31.404Z,2.05
2018-04-01T22:58:58.954Z,2.07
2018-04-01T23:01:26.476Z,2.01
2018-04-01T23:03:54.021Z,2.00
2018-04-01T23:06:21.511Z,1.95
2018-04-01T23:08:49.013Z,1.89
2018-04-01T23:11:16.556Z,1.84
